Vision — WDF6306 — position and weather

sailwx.info

Track history (hours):
 
Tides and Currents Weather Stations Pressure Air Temp Water Temp Dewpoint Dewpoint Depression Visibility Wind Speed Wind Dir Waves Ship Positions

Vision

Owner: INTREPID SHIP MANAGEMENT, JACKSONVILLE, FL. More information available from US FCC via Universal Licensing System and Coast Guard Vessel Documentation Center.

Last reported at 2016-Jul-28 04:32 UTC. Time now 2016-Jul-28 04:46 UTC.
Position N 42°53' W 125°50'.

Length 199 m; draft 8.2 m.

Type: Towing. MMSI: 366904000.

Date/timePositionNaut miles runAvg speedWind from/ knotsBaromVisibWave heightAir tempDewpointWater temp
2016-Jul-28 04:32N 42°53' W 125°50'8 8.0
2016-Jul-28 03:29N 42°45' W 125°51'9 8.9
2016-Jul-28 02:29N 42°36' W 125°48'8 8.4
2016-Jul-28 01:33N 42°28' W 125°48'8 8.2
2016-Jul-28 00:33N 42°20' W 125°48'8 8.2
2016-Jul-27 23:33N 42°12' W 125°48'9 8.3
2016-Jul-27 22:30N 42°03' W 125°48'8 8.0
2016-Jul-27 21:33N 41°56' W 125°47'30 7.3
2016-Jul-27 17:28N 41°26' W 125°44'7 6.9
2016-Jul-27 16:30N 41°20' W 125°43'6 6.7
2016-Jul-27 15:33N 41°13' W 125°42'6 6.1
2016-Jul-27 14:33N 41°07' W 125°42'33 6.5
2016-Jul-27 09:25N 40°34' W 125°41'20 6.5
2016-Jul-27 06:19N 40°14' W 125°39'35 6.1
2016-Jul-27 00:33N 39°41' W 125°25'72 6.3
2016-Jul-26 13:08N 38°35' W 124°47'12 6.9
2016-Jul-26 11:22N 38°24' W 124°40'6 6.9
2016-Jul-26 10:32N 38°19' W 124°37'7 6.8
2016-Jul-26 09:33N 38°14' W 124°31'6 6.4
2016-Jul-26 08:33N 38°10' W 124°24'6 6.5
2016-Jul-26 07:33N 38°06' W 124°18'7 6.6
2016-Jul-26 06:33N 38°02' W 124°11'7 6.7
2016-Jul-26 05:33N 37°58' W 124°04'7 7.3
2016-Jul-26 04:33N 37°54' W 123°57'9 9.2
2016-Jul-26 03:33N 37°49' W 123°47'1111.3
2016-Jul-26 02:34N 37°43' W 123°35'9 8.6
2016-Jul-26 01:33N 37°38' W 123°26'8 7.6
2016-Jul-26 00:33N 37°34' W 123°18'3 3.0
2016-Jul-25 23:33N 37°34' W 123°14'9 9.0
2016-Jul-25 22:34N 37°35' W 123°03'10 9.9
2016-Jul-25 21:33N 37°40' W 122°52'9 9.1
2016-Jul-25 20:33N 37°45' W 122°43'1010.4
2016-Jul-25 19:33N 37°49' W 122°30'8 7.5
2016-Jul-25 18:33N 37°56' W 122°27'1010.2
2016-Jul-25 17:33N 38°03' W 122°18'8 8.1
2016-Jul-25 16:33N 38°02' W 122°08'0 0.0
2016-Jul-25 02:06N 38°02' W 122°08'0 0.0
2016-Jul-25 01:30N 38°02' W 122°08'0 0.0
2016-Jul-25 00:30N 38°02' W 122°08'0 0.0
2016-Jul-24 12:12N 38°02' W 122°08'0 0.0
2016-Jul-24 11:30N 38°02' W 122°08'0 0.0
2016-Jul-24 10:24N 38°02' W 122°08'0 0.0
2016-Jul-24 09:30N 38°02' W 122°08'0 0.0
2016-Jul-24 02:18N 38°02' W 122°08'2 3.2
2016-Jul-24 01:33N 38°03' W 122°11'1211.9
2016-Jul-24 00:33N 37°60' W 122°25'1111.5
2016-Jul-23 23:34N 37°48' W 122°23'5 4.9
2016-Jul-23 22:33N 37°44' W 122°20'0 0.0
2016-Jul-23 21:32N 37°44' W 122°20'0 0.0
2016-Jul-23 20:32N 37°44' W 122°20'0 0.0
2016-Jul-23 19:32N 37°44' W 122°20'0 0.0
2016-Jul-23 18:32N 37°44' W 122°20'0 0.1
2016-Jul-23 17:32N 37°44' W 122°20'0 0.2
2016-Jul-23 16:32N 37°44' W 122°20'0 0.0
2016-Jul-23 15:32N 37°44' W 122°20'0 0.0
2016-Jul-23 14:32N 37°44' W 122°20'0 0.0
2016-Jul-23 13:32N 37°44' W 122°20'0 0.0
2016-Jul-23 12:32N 37°44' W 122°20'0 0.0
2016-Jul-23 11:32N 37°44' W 122°20'0 0.2
2016-Jul-23 10:32N 37°44' W 122°20'0 0.1
2016-Jul-23 09:32N 37°44' W 122°20'0 0.0
2016-Jul-23 08:32N 37°44' W 122°20'0 0.0
2016-Jul-23 07:32N 37°44' W 122°20'0 0.0
2016-Jul-23 06:32N 37°44' W 122°20'0 0.0
2016-Jul-23 04:32N 37°44' W 122°20'0 0.2
2016-Jul-23 03:32N 37°44' W 122°20'0 0.0
2016-Jul-23 02:32N 37°44' W 122°20'0 0.0
2016-Jul-23 01:32N 37°44' W 122°20'0 0.1
2016-Jul-23 00:32N 37°44' W 122°20'0 0.1
2016-Jul-22 23:32N 37°44' W 122°20'0 0.1
2016-Jul-22 22:32N 37°44' W 122°20'0 0.1
2016-Jul-22 21:32N 37°44' W 122°20'0 0.0
2016-Jul-22 20:32N 37°44' W 122°20'0 0.0
2016-Jul-22 19:32N 37°44' W 122°20'0 0.0
2016-Jul-22 18:32N 37°44' W 122°20'0 0.0
2016-Jul-22 17:32N 37°44' W 122°20'0 0.2
2016-Jul-22 16:33N 37°44' W 122°20'0 0.1
2016-Jul-22 15:33N 37°44' W 122°20'7 7.4
2016-Jul-22 14:33N 37°51' W 122°25'1312.8
2016-Jul-22 13:33N 38°03' W 122°20'1111.0
2016-Jul-22 12:33N 38°03' W 122°06'0 0.1
2016-Jul-22 11:33N 38°03' W 122°06'0 0.0
2016-Jul-22 10:33N 38°03' W 122°06'0 0.0
2016-Jul-22 09:33N 38°03' W 122°06'0 0.0
2016-Jul-22 08:33N 38°03' W 122°06'0 0.0
2016-Jul-22 07:28N 38°03' W 122°06'0 0.0
2016-Jul-22 05:33N 38°03' W 122°06'0 0.0
2016-Jul-22 04:33N 38°03' W 122°06'0 0.0
2016-Jul-22 03:33N 38°03' W 122°06'0 0.0
2016-Jul-22 02:33N 38°03' W 122°06'0 0.0
2016-Jul-22 01:33N 38°03' W 122°06'0 0.0
2016-Jul-22 00:33N 38°03' W 122°06'0 0.0
2016-Jul-21 23:33N 38°03' W 122°06'0 0.0
2016-Jul-21 22:33N 38°03' W 122°06'0 0.0
2016-Jul-21 21:33N 38°03' W 122°06'0 0.0
2016-Jul-21 20:33N 38°03' W 122°06'0 0.0
2016-Jul-21 19:33N 38°03' W 122°06'0 0.0
2016-Jul-21 18:33N 38°03' W 122°06'0 0.0
2016-Jul-21 17:33N 38°03' W 122°06'0 0.0
2016-Jul-21 16:33N 38°03' W 122°06'0 0.0
2016-Jul-21 15:33N 38°03' W 122°06'0 0.0
2016-Jul-21 14:33N 38°03' W 122°06'0 0.0
2016-Jul-21 13:33N 38°03' W 122°06'0 0.0
2016-Jul-21 12:33N 38°03' W 122°06'0 0.0
2016-Jul-21 11:33N 38°03' W 122°06'0 0.0
2016-Jul-21 10:28N 38°03' W 122°06'0 0.0
2016-Jul-21 09:33N 38°03' W 122°06'0 0.0
2016-Jul-21 08:33N 38°03' W 122°06'0 0.0
2016-Jul-21 07:33N 38°03' W 122°06'0 0.0
2016-Jul-21 06:33N 38°03' W 122°06'0 0.0
2016-Jul-21 05:33N 38°03' W 122°06'0 0.0
2016-Jul-21 04:33N 38°03' W 122°06'0 0.0
2016-Jul-21 03:33N 38°03' W 122°06'0 0.0
2016-Jul-21 02:33N 38°03' W 122°06'0 0.0
2016-Jul-21 01:33N 38°03' W 122°06'0 0.0
2016-Jul-21 00:33N 38°03' W 122°06'1 1.3
2016-Jul-20 23:32N 38°02' W 122°08'0 0.4
2016-Jul-20 22:33N 38°02' W 122°08'0 0.0
2016-Jul-20 21:33N 38°02' W 122°08'0 0.0
2016-Jul-20 20:23N 38°02' W 122°08'0 0.0
2016-Jul-20 19:29N 38°02' W 122°08'0 0.0
2016-Jul-20 18:29N 38°02' W 122°08'0 0.0
2016-Jul-20 17:05N 38°02' W 122°08'0 0.0
2016-Jul-20 16:17N 38°02' W 122°08'0 0.0
2016-Jul-20 15:29N 38°02' W 122°08'0 0.0
2016-Jul-20 14:29N 38°02' W 122°08'0 0.0
2016-Jul-20 13:11N 38°02' W 122°08'0 0.0
2016-Jul-20 12:23N 38°02' W 122°08'0 0.0
2016-Jul-20 11:23N 38°02' W 122°08'0 0.0
2016-Jul-20 10:11N 38°02' W 122°08'0 0.0
2016-Jul-20 09:23N 38°02' W 122°08'0 0.0
2016-Jul-20 08:29N 38°02' W 122°08'0 0.0
2016-Jul-20 07:29N 38°02' W 122°08'0 0.0
2016-Jul-20 06:23N 38°02' W 122°08'0 0.0
2016-Jul-20 05:23N 38°02' W 122°08'0 0.0
2016-Jul-20 04:23N 38°02' W 122°08'0 0.0
2016-Jul-20 03:29N 38°02' W 122°08'0 0.0
2016-Jul-20 02:29N 38°02' W 122°08'0 0.0
2016-Jul-20 01:29N 38°02' W 122°08'0 0.0
2016-Jul-20 00:17N 38°02' W 122°08'0 0.0
2016-Jul-19 23:29N 38°02' W 122°08'0 0.0
2016-Jul-19 22:11N 38°02' W 122°08'0 0.0
2016-Jul-19 19:29N 38°02' W 122°08'0 0.0
2016-Jul-19 14:23N 38°02' W 122°08'0 0.0
2016-Jul-19 13:29N 38°02' W 122°08'0 0.0
2016-Jul-19 12:29N 38°02' W 122°08'0 0.0
2016-Jul-19 10:29N 38°02' W 122°08'0 0.0
2016-Jul-19 09:29N 38°02' W 122°08'0 0.0
2016-Jul-19 08:23N 38°02' W 122°08'0 0.0
2016-Jul-19 07:29N 38°02' W 122°08'0 0.0
2016-Jul-19 04:23N 38°02' W 122°08'0 0.0
2016-Jul-19 03:29N 38°02' W 122°08'0 0.0
2016-Jul-19 02:29N 38°02' W 122°08'0 0.0
2016-Jul-18 16:29N 38°02' W 122°08'  
Track history (hours):
 
Tides and Currents Weather Stations Pressure Air Temp Water Temp Dewpoint Dewpoint Depression Visibility Wind Speed Wind Dir Waves Ship Positions

Vision

Owner: INTREPID SHIP MANAGEMENT, JACKSONVILLE, FL. More information available from US FCC via Universal Licensing System and Coast Guard Vessel Documentation Center.

Last reported at 2016-Jul-28 04:32 UTC. Time now 2016-Jul-28 04:46 UTC.
Position N 42°53' W 125°50'.

Length 199 m; draft 8.2 m.

Type: Towing. MMSI: 366904000.

Date/timePositionNaut miles runAvg speedWind from/ knotsBaromVisibWave heightAir tempDewpointWater temp
2016-Jul-28 04:32N 42°53' W 125°50'8 8.0
2016-Jul-28 03:29N 42°45' W 125°51'9 8.9
2016-Jul-28 02:29N 42°36' W 125°48'8 8.4
2016-Jul-28 01:33N 42°28' W 125°48'8 8.2
2016-Jul-28 00:33N 42°20' W 125°48'8 8.2
2016-Jul-27 23:33N 42°12' W 125°48'9 8.3
2016-Jul-27 22:30N 42°03' W 125°48'8 8.0
2016-Jul-27 21:33N 41°56' W 125°47'30 7.3
2016-Jul-27 17:28N 41°26' W 125°44'7 6.9
2016-Jul-27 16:30N 41°20' W 125°43'6 6.7
2016-Jul-27 15:33N 41°13' W 125°42'6 6.1
2016-Jul-27 14:33N 41°07' W 125°42'33 6.5
2016-Jul-27 09:25N 40°34' W 125°41'20 6.5
2016-Jul-27 06:19N 40°14' W 125°39'35 6.1
2016-Jul-27 00:33N 39°41' W 125°25'72 6.3
2016-Jul-26 13:08N 38°35' W 124°47'12 6.9
2016-Jul-26 11:22N 38°24' W 124°40'6 6.9
2016-Jul-26 10:32N 38°19' W 124°37'7 6.8
2016-Jul-26 09:33N 38°14' W 124°31'6 6.4
2016-Jul-26 08:33N 38°10' W 124°24'6 6.5
2016-Jul-26 07:33N 38°06' W 124°18'7 6.6
2016-Jul-26 06:33N 38°02' W 124°11'7 6.7
2016-Jul-26 05:33N 37°58' W 124°04'7 7.3
2016-Jul-26 04:33N 37°54' W 123°57'9 9.2
2016-Jul-26 03:33N 37°49' W 123°47'1111.3
2016-Jul-26 02:34N 37°43' W 123°35'9 8.6
2016-Jul-26 01:33N 37°38' W 123°26'8 7.6
2016-Jul-26 00:33N 37°34' W 123°18'3 3.0
2016-Jul-25 23:33N 37°34' W 123°14'9 9.0
2016-Jul-25 22:34N 37°35' W 123°03'10 9.9
2016-Jul-25 21:33N 37°40' W 122°52'9 9.1
2016-Jul-25 20:33N 37°45' W 122°43'1010.4
2016-Jul-25 19:33N 37°49' W 122°30'8 7.5
2016-Jul-25 18:33N 37°56' W 122°27'1010.2
2016-Jul-25 17:33N 38°03' W 122°18'8 8.1
2016-Jul-25 16:33N 38°02' W 122°08'0 0.0
2016-Jul-25 02:06N 38°02' W 122°08'0 0.0
2016-Jul-25 01:30N 38°02' W 122°08'0 0.0
2016-Jul-25 00:30N 38°02' W 122°08'0 0.0
2016-Jul-24 12:12N 38°02' W 122°08'0 0.0
2016-Jul-24 11:30N 38°02' W 122°08'0 0.0
2016-Jul-24 10:24N 38°02' W 122°08'0 0.0
2016-Jul-24 09:30N 38°02' W 122°08'0 0.0
2016-Jul-24 02:18N 38°02' W 122°08'2 3.2
2016-Jul-24 01:33N 38°03' W 122°11'1211.9
2016-Jul-24 00:33N 37°60' W 122°25'1111.5
2016-Jul-23 23:34N 37°48' W 122°23'5 4.9
2016-Jul-23 22:33N 37°44' W 122°20'0 0.0
2016-Jul-23 21:32N 37°44' W 122°20'0 0.0
2016-Jul-23 20:32N 37°44' W 122°20'0 0.0
2016-Jul-23 19:32N 37°44' W 122°20'0 0.0
2016-Jul-23 18:32N 37°44' W 122°20'0 0.1
2016-Jul-23 17:32N 37°44' W 122°20'0 0.2
2016-Jul-23 16:32N 37°44' W 122°20'0 0.0
2016-Jul-23 15:32N 37°44' W 122°20'0 0.0
2016-Jul-23 14:32N 37°44' W 122°20'0 0.0
2016-Jul-23 13:32N 37°44' W 122°20'0 0.0
2016-Jul-23 12:32N 37°44' W 122°20'0 0.0
2016-Jul-23 11:32N 37°44' W 122°20'0 0.2
2016-Jul-23 10:32N 37°44' W 122°20'0 0.1
2016-Jul-23 09:32N 37°44' W 122°20'0 0.0
2016-Jul-23 08:32N 37°44' W 122°20'0 0.0
2016-Jul-23 07:32N 37°44' W 122°20'0 0.0
2016-Jul-23 06:32N 37°44' W 122°20'0 0.0
2016-Jul-23 04:32N 37°44' W 122°20'0 0.2
2016-Jul-23 03:32N 37°44' W 122°20'0 0.0
2016-Jul-23 02:32N 37°44' W 122°20'0 0.0
2016-Jul-23 01:32N 37°44' W 122°20'0 0.1
2016-Jul-23 00:32N 37°44' W 122°20'0 0.1
2016-Jul-22 23:32N 37°44' W 122°20'0 0.1
2016-Jul-22 22:32N 37°44' W 122°20'0 0.1
2016-Jul-22 21:32N 37°44' W 122°20'0 0.0
2016-Jul-22 20:32N 37°44' W 122°20'0 0.0
2016-Jul-22 19:32N 37°44' W 122°20'0 0.0
2016-Jul-22 18:32N 37°44' W 122°20'0 0.0
2016-Jul-22 17:32N 37°44' W 122°20'0 0.2
2016-Jul-22 16:33N 37°44' W 122°20'0 0.1
2016-Jul-22 15:33N 37°44' W 122°20'7 7.4
2016-Jul-22 14:33N 37°51' W 122°25'1312.8
2016-Jul-22 13:33N 38°03' W 122°20'1111.0
2016-Jul-22 12:33N 38°03' W 122°06'0 0.1
2016-Jul-22 11:33N 38°03' W 122°06'0 0.0
2016-Jul-22 10:33N 38°03' W 122°06'0 0.0
2016-Jul-22 09:33N 38°03' W 122°06'0 0.0
2016-Jul-22 08:33N 38°03' W 122°06'0 0.0
2016-Jul-22 07:28N 38°03' W 122°06'0 0.0
2016-Jul-22 05:33N 38°03' W 122°06'0 0.0
2016-Jul-22 04:33N 38°03' W 122°06'0 0.0
2016-Jul-22 03:33N 38°03' W 122°06'0 0.0
2016-Jul-22 02:33N 38°03' W 122°06'0 0.0
2016-Jul-22 01:33N 38°03' W 122°06'0 0.0
2016-Jul-22 00:33N 38°03' W 122°06'0 0.0
2016-Jul-21 23:33N 38°03' W 122°06'0 0.0
2016-Jul-21 22:33N 38°03' W 122°06'0 0.0
2016-Jul-21 21:33N 38°03' W 122°06'0 0.0
2016-Jul-21 20:33N 38°03' W 122°06'0 0.0
2016-Jul-21 19:33N 38°03' W 122°06'0 0.0
2016-Jul-21 18:33N 38°03' W 122°06'0 0.0
2016-Jul-21 17:33N 38°03' W 122°06'0 0.0
2016-Jul-21 16:33N 38°03' W 122°06'0 0.0
2016-Jul-21 15:33N 38°03' W 122°06'0 0.0
2016-Jul-21 14:33N 38°03' W 122°06'0 0.0
2016-Jul-21 13:33N 38°03' W 122°06'0 0.0
2016-Jul-21 12:33N 38°03' W 122°06'0 0.0
2016-Jul-21 11:33N 38°03' W 122°06'0 0.0
2016-Jul-21 10:28N 38°03' W 122°06'0 0.0
2016-Jul-21 09:33N 38°03' W 122°06'0 0.0
2016-Jul-21 08:33N 38°03' W 122°06'0 0.0
2016-Jul-21 07:33N 38°03' W 122°06'0 0.0
2016-Jul-21 06:33N 38°03' W 122°06'0 0.0
2016-Jul-21 05:33N 38°03' W 122°06'0 0.0
2016-Jul-21 04:33N 38°03' W 122°06'0 0.0
2016-Jul-21 03:33N 38°03' W 122°06'0 0.0
2016-Jul-21 02:33N 38°03' W 122°06'0 0.0
2016-Jul-21 01:33N 38°03' W 122°06'0 0.0
2016-Jul-21 00:33N 38°03' W 122°06'1 1.3
2016-Jul-20 23:32N 38°02' W 122°08'0 0.4
2016-Jul-20 22:33N 38°02' W 122°08'0 0.0
2016-Jul-20 21:33N 38°02' W 122°08'0 0.0
2016-Jul-20 20:23N 38°02' W 122°08'0 0.0
2016-Jul-20 19:29N 38°02' W 122°08'0 0.0
2016-Jul-20 18:29N 38°02' W 122°08'0 0.0
2016-Jul-20 17:05N 38°02' W 122°08'0 0.0
2016-Jul-20 16:17N 38°02' W 122°08'0 0.0
2016-Jul-20 15:29N 38°02' W 122°08'0 0.0
2016-Jul-20 14:29N 38°02' W 122°08'0 0.0
2016-Jul-20 13:11N 38°02' W 122°08'0 0.0
2016-Jul-20 12:23N 38°02' W 122°08'0 0.0
2016-Jul-20 11:23N 38°02' W 122°08'0 0.0
2016-Jul-20 10:11N 38°02' W 122°08'0 0.0
2016-Jul-20 09:23N 38°02' W 122°08'0 0.0
2016-Jul-20 08:29N 38°02' W 122°08'0 0.0
2016-Jul-20 07:29N 38°02' W 122°08'0 0.0
2016-Jul-20 06:23N 38°02' W 122°08'0 0.0
2016-Jul-20 05:23N 38°02' W 122°08'0 0.0
2016-Jul-20 04:23N 38°02' W 122°08'0 0.0
2016-Jul-20 03:29N 38°02' W 122°08'0 0.0
2016-Jul-20 02:29N 38°02' W 122°08'0 0.0
2016-Jul-20 01:29N 38°02' W 122°08'0 0.0
2016-Jul-20 00:17N 38°02' W 122°08'0 0.0
2016-Jul-19 23:29N 38°02' W 122°08'0 0.0
2016-Jul-19 22:11N 38°02' W 122°08'0 0.0
2016-Jul-19 19:29N 38°02' W 122°08'0 0.0
2016-Jul-19 14:23N 38°02' W 122°08'0 0.0
2016-Jul-19 13:29N 38°02' W 122°08'0 0.0
2016-Jul-19 12:29N 38°02' W 122°08'0 0.0
2016-Jul-19 10:29N 38°02' W 122°08'0 0.0
2016-Jul-19 09:29N 38°02' W 122°08'0 0.0
2016-Jul-19 08:23N 38°02' W 122°08'0 0.0
2016-Jul-19 07:29N 38°02' W 122°08'0 0.0
2016-Jul-19 04:23N 38°02' W 122°08'0 0.0
2016-Jul-19 03:29N 38°02' W 122°08'0 0.0
2016-Jul-19 02:29N 38°02' W 122°08'0 0.0
2016-Jul-18 16:29N 38°02' W 122°08'  

Dump ship's entire track history